Time;durP1;ratioP1;P1;durP2;ratioP2;P2;SDS_P1;SDS_P2;PMS_P1;PMS_P2;Temp;Humidity;BMP_temperature;BMP_pressure;BME280_temperature;BME280_humidity;BME280_pressure;Samples;Min_cycle;Max_cycle;Signal;HPM_P1;HPM_P2
2022/11/06 00:01:22;;;;;;;;;;;22.40;65.60;;;;;;1567981;75;737;-61
2022/11/06 00:03:24;;;;;;;;;;;22.40;65.60;;;;;;1574229;74;1934;-60
2022/11/06 00:07:48;;;;;;;;;;;22.40;65.50;;;;;;1583552;74;1822;-60
2022/11/06 00:09:49;;;;;;;;;;;22.50;65.60;;;;;;1570520;75;841;-59
2022/11/06 00:11:51;;;;;;;;;;;22.50;65.60;;;;;;1571322;75;742;-59
2022/11/06 00:13:53;;;;;;;;;;;22.50;65.60;;;;;;1569061;75;786;-61
2022/11/06 00:15:55;;;;;;;;;;;22.40;65.50;;;;;;1565825;75;801;-60
2022/11/06 00:17:57;;;;;;;;;;;22.40;65.60;;;;;;1574542;75;1168;-60
2022/11/06 00:19:59;;;;;;;;;;;22.50;65.60;;;;;;1575493;75;1523;-58
2022/11/06 00:22:01;;;;;;;;;;;22.60;65.30;;;;;;1559198;75;763;-59
2022/11/06 00:24:03;;;;;;;;;;;22.60;65.30;;;;;;1559463;75;1930;-59
2022/11/06 00:26:06;;;;;;;;;;;22.50;65.30;;;;;;1567113;75;728;-60
2022/11/06 00:28:08;;;;;;;;;;;22.50;65.30;;;;;;1563027;75;601;-59
2022/11/06 00:30:13;;;;;;;;;;;22.50;65.20;;;;;;1563073;75;758;-59
2022/11/06 00:32:15;;;;;;;;;;;22.60;65.10;;;;;;1548517;75;773;-60
2022/11/06 00:34:17;;;;;;;;;;;22.60;65.00;;;;;;1570951;75;1176;-60
2022/11/06 00:36:20;;;;;;;;;;;22.50;65.00;;;;;;1560657;75;1141;-60
2022/11/06 00:38:22;;;;;;;;;;;22.60;65.10;;;;;;1565002;75;696;-60
2022/11/06 00:40:24;;;;;;;;;;;22.60;65.20;;;;;;1569073;75;691;-57
2022/11/06 00:42:26;;;;;;;;;;;22.50;65.30;;;;;;1563230;75;789;-58
2022/11/06 00:44:28;;;;;;;;;;;22.60;65.20;;;;;;1564608;75;1936;-58
2022/11/06 00:46:30;;;;;;;;;;;22.60;65.20;;;;;;1563263;75;1139;-58
2022/11/06 00:48:32;;;;;;;;;;;22.60;65.00;;;;;;1556668;75;1519;-60
2022/11/06 00:50:34;;;;;;;;;;;22.60;64.80;;;;;;1579125;75;783;-59
2022/11/06 00:52:36;;;;;;;;;;;22.60;65.10;;;;;;1553996;75;771;-59
2022/11/06 00:54:38;;;;;;;;;;;22.70;65.10;;;;;;1571231;75;748;-59
2022/11/06 00:56:40;;;;;;;;;;;22.70;64.90;;;;;;1556496;75;1157;-56
2022/11/06 00:58:41;;;;;;;;;;;22.80;64.70;;;;;;1561992;75;783;-57
2022/11/06 01:00:43;;;;;;;;;;;22.80;64.50;;;;;;1561002;75;734;-59
2022/11/06 01:02:45;;;;;;;;;;;22.90;64.40;;;;;;1573905;75;1552;-59
2022/11/06 01:04:47;;;;;;;;;;;22.90;64.30;;;;;;1576337;75;1945;-60
2022/11/06 01:06:51;;;;;;;;;;;22.80;64.20;;;;;;1580127;75;1161;-60
2022/11/06 01:08:53;;;;;;;;;;;22.90;64.30;;;;;;1573555;75;1116;-60
2022/11/06 01:10:55;;;;;;;;;;;22.80;64.10;;;;;;1561771;75;670;-59
2022/11/06 01:12:57;;;;;;;;;;;22.80;64.20;;;;;;1571911;75;792;-60
2022/11/06 01:14:59;;;;;;;;;;;22.70;64.20;;;;;;1567785;75;823;-58
2022/11/06 01:17:01;;;;;;;;;;;22.70;64.10;;;;;;1557520;75;1410;-57
2022/11/06 01:19:03;;;;;;;;;;;22.70;64.10;;;;;;1556269;75;720;-59
2022/11/06 01:21:08;;;;;;;;;;;22.70;64.20;;;;;;1555827;75;765;-59
2022/11/06 01:23:10;;;;;;;;;;;22.70;64.30;;;;;;1573649;75;1921;-59
2022/11/06 01:25:12;;;;;;;;;;;22.70;64.20;;;;;;1570873;74;620;-57
2022/11/06 01:27:13;;;;;;;;;;;22.80;64.30;;;;;;1577342;74;1139;-55
2022/11/06 01:29:16;;;;;;;;;;;22.80;64.10;;;;;;1576959;74;743;-59
2022/11/06 01:31:19;;;;;;;;;;;22.70;64.00;;;;;;1569811;75;1494;-60
2022/11/06 01:33:21;;;;;;;;;;;22.80;64.00;;;;;;1570702;75;769;-56
2022/11/06 01:35:22;;;;;;;;;;;22.80;63.80;;;;;;1560390;75;623;-55
2022/11/06 01:37:24;;;;;;;;;;;22.80;63.90;;;;;;1564063;75;1137;-56
2022/11/06 01:39:26;;;;;;;;;;;22.80;63.90;;;;;;1562514;75;788;-60
2022/11/06 01:41:29;;;;;;;;;;;22.80;63.90;;;;;;1574323;75;758;-59
2022/11/06 01:43:50;;;;;;;;;;;22.80;63.90;;;;;;1569603;75;1953;-57
2022/11/06 01:45:53;;;;;;;;;;;22.90;63.90;;;;;;1558175;75;1622;-59
2022/11/06 01:47:55;;;;;;;;;;;22.80;63.70;;;;;;1566937;75;1141;-56
2022/11/06 01:49:57;;;;;;;;;;;22.70;63.80;;;;;;1519815;78;779;-59
2022/11/06 01:52:00;;;;;;;;;;;22.80;63.90;;;;;;1534355;76;702;-56
2022/11/06 01:54:03;;;;;;;;;;;22.80;63.80;;;;;;1505407;78;711;-58
2022/11/06 01:56:05;;;;;;;;;;;22.80;63.70;;;;;;1520391;77;688;-58
2022/11/06 01:58:07;;;;;;;;;;;22.90;63.80;;;;;;1578305;74;1212;-59
2022/11/06 02:00:09;;;;;;;;;;;22.80;63.70;;;;;;1577700;74;1517;-59
2022/11/06 02:02:11;;;;;;;;;;;22.80;63.80;;;;;;1573513;74;845;-59
2022/11/06 02:04:18;;;;;;;;;;;22.70;63.80;;;;;;1574453;74;1922;-59
2022/11/06 02:06:19;;;;;;;;;;;22.80;63.70;;;;;;1573414;74;1176;-59
2022/11/06 02:08:21;;;;;;;;;;;22.90;63.90;;;;;;1579036;74;767;-58
2022/11/06 02:10:23;;;;;;;;;;;22.90;63.60;;;;;;1580475;74;1123;-58
2022/11/06 02:12:32;;;;;;;;;;;23.00;63.40;;;;;;1571122;74;737;-59
2022/11/06 02:14:36;;;;;;;;;;;23.00;63.30;;;;;;1582272;74;1921;-59
2022/11/06 02:16:45;;;;;;;;;;;23.00;63.30;;;;;;1571409;74;1219;-59
2022/11/06 02:19:05;;;;;;;;;;;23.00;63.20;;;;;;1579726;74;709;-59
2022/11/06 02:21:24;;;;;;;;;;;23.00;63.20;;;;;;1587719;74;790;-58
2022/11/06 02:23:43;;;;;;;;;;;22.90;63.40;;;;;;1560910;74;1946;-58
2022/11/06 02:25:52;;;;;;;;;;;22.90;63.40;;;;;;1577147;74;869;-58
2022/11/06 02:27:56;;;;;;;;;;;22.90;63.50;;;;;;1579265;73;1688;-59
2022/11/06 02:29:59;;;;;;;;;;;22.80;63.50;;;;;;1573476;74;2219;-59
2022/11/06 02:32:03;;;;;;;;;;;22.90;63.50;;;;;;1577121;74;699;-59
2022/11/06 02:34:06;;;;;;;;;;;22.90;63.40;;;;;;1568813;74;766;-59
2022/11/06 02:36:08;;;;;;;;;;;22.90;63.30;;;;;;1576040;74;774;-56
2022/11/06 02:38:11;;;;;;;;;;;22.90;63.20;;;;;;1580125;74;812;-59
2022/11/06 02:40:13;;;;;;;;;;;22.90;63.00;;;;;;1574736;74;726;-60
2022/11/06 02:42:15;;;;;;;;;;;22.90;63.00;;;;;;1575328;75;1439;-60
2022/11/06 02:44:18;;;;;;;;;;;22.90;63.10;;;;;;1559374;74;1934;-60
2022/11/06 02:46:22;;;;;;;;;;;22.90;63.10;;;;;;1577352;73;1131;-58
2022/11/06 02:48:25;;;;;;;;;;;23.00;63.10;;;;;;1579216;74;1799;-58
2022/11/06 02:50:29;;;;;;;;;;;23.00;63.00;;;;;;1570728;74;714;-60
2022/11/06 02:52:32;;;;;;;;;;;22.90;63.10;;;;;;1585838;74;1668;-59
2022/11/06 02:54:34;;;;;;;;;;;23.00;63.10;;;;;;1575789;74;609;-58
2022/11/06 02:56:37;;;;;;;;;;;22.90;63.10;;;;;;1591212;74;1685;-58
2022/11/06 02:58:40;;;;;;;;;;;22.90;63.20;;;;;;1581552;74;774;-60
2022/11/06 03:00:42;;;;;;;;;;;22.90;63.20;;;;;;1578756;74;725;-60
2022/11/06 03:02:52;;;;;;;;;;;22.90;63.20;;;;;;1576450;74;716;-58
2022/11/06 03:04:55;;;;;;;;;;;22.90;63.20;;;;;;1571298;74;1937;-59
2022/11/06 03:07:02;;;;;;;;;;;22.90;63.30;;;;;;1558414;74;1728;-56
2022/11/06 03:09:08;;;;;;;;;;;22.90;63.20;;;;;;1576637;74;1913;-57
2022/11/06 03:11:17;;;;;;;;;;;22.90;63.20;;;;;;1581323;74;1168;-59
2022/11/06 03:13:23;;;;;;;;;;;22.90;63.20;;;;;;1570778;74;1250;-59
2022/11/06 03:15:32;;;;;;;;;;;22.90;63.10;;;;;;1586251;74;788;-59
2022/11/06 03:17:45;;;;;;;;;;;23.00;63.10;;;;;;1586082;74;1195;-59
2022/11/06 03:19:48;;;;;;;;;;;23.00;62.80;;;;;;1579128;74;799;-59
2022/11/06 03:21:52;;;;;;;;;;;23.00;62.80;;;;;;1581500;74;773;-60
2022/11/06 03:23:55;;;;;;;;;;;23.00;62.80;;;;;;1587188;74;1930;-59
2022/11/06 03:26:11;;;;;;;;;;;23.00;62.70;;;;;;1582946;74;1888;-58
2022/11/06 03:28:14;;;;;;;;;;;23.10;62.70;;;;;;1502302;74;1034;-59
2022/11/06 03:30:16;;;;;;;;;;;23.00;62.50;;;;;;1570158;74;721;-59
2022/11/06 03:32:20;;;;;;;;;;;23.10;62.60;;;;;;1575575;74;772;-59
2022/11/06 03:34:26;;;;;;;;;;;23.10;62.50;;;;;;1579151;74;766;-58
2022/11/06 03:36:34;;;;;;;;;;;23.10;62.50;;;;;;1567199;74;1687;-58
2022/11/06 03:38:40;;;;;;;;;;;23.10;62.60;;;;;;1585930;74;1631;-59
2022/11/06 03:40:43;;;;;;;;;;;23.00;62.60;;;;;;1583837;74;729;-59
2022/11/06 03:42:45;;;;;;;;;;;23.00;62.60;;;;;;1581877;74;731;-59
2022/11/06 03:44:48;;;;;;;;;;;23.00;62.50;;;;;;1561567;74;1943;-60
2022/11/06 03:46:51;;;;;;;;;;;23.10;62.60;;;;;;1570350;74;1078;-60
2022/11/06 03:48:55;;;;;;;;;;;23.10;62.50;;;;;;1585324;74;760;-59
2022/11/06 03:50:58;;;;;;;;;;;23.10;62.50;;;;;;1576883;74;1857;-59
2022/11/06 03:53:04;;;;;;;;;;;23.10;62.60;;;;;;1583764;74;2165;-60
2022/11/06 03:55:16;;;;;;;;;;;23.10;62.60;;;;;;1574550;74;2042;-57
2022/11/06 03:57:20;;;;;;;;;;;23.10;62.60;;;;;;1581129;74;1143;-59
2022/11/06 03:59:24;;;;;;;;;;;23.10;62.60;;;;;;1582502;74;886;-59
2022/11/06 04:01:27;;;;;;;;;;;23.10;62.50;;;;;;1581995;74;803;-56
2022/11/06 04:03:31;;;;;;;;;;;23.10;62.60;;;;;;1585583;74;738;-60
2022/11/06 04:05:34;;;;;;;;;;;23.00;62.50;;;;;;1583947;74;1951;-59
2022/11/06 04:07:37;;;;;;;;;;;23.00;62.60;;;;;;1582555;74;1798;-56
2022/11/06 04:14:22;;;;;;;;;;;23.00;62.60;;;;;;1584263;74;1698;-60
2022/11/06 04:16:28;;;;;;;;;;;23.00;62.70;;;;;;1576374;74;1164;-58
2022/11/06 04:18:30;;;;;;;;;;;23.00;62.50;;;;;;1568554;74;1761;-60
2022/11/06 04:22:54;;;;;;;;;;;23.10;62.30;;;;;;1579226;74;2015;-59
2022/11/06 04:27:28;;;;;;;;;;;23.10;62.40;;;;;;1583059;74;1690;-58
2022/11/06 04:29:48;;;;;;;;;;;23.10;62.40;;;;;;1584818;74;783;-59
2022/11/06 04:32:10;;;;;;;;;;;23.10;62.40;;;;;;1584610;74;726;-59
2022/11/06 04:34:20;;;;;;;;;;;23.10;62.40;;;;;;1580367;74;1577;-59
2022/11/06 04:36:38;;;;;;;;;;;23.10;62.40;;;;;;1585272;74;1801;-59
2022/11/06 04:38:42;;;;;;;;;;;23.10;62.30;;;;;;1583445;74;731;-60
2022/11/06 04:40:58;;;;;;;;;;;23.10;62.30;;;;;;1582656;74;731;-60
2022/11/06 04:43:01;;;;;;;;;;;22.90;62.20;;;;;;1585146;74;783;-60
2022/11/06 04:45:04;;;;;;;;;;;23.10;62.60;;;;;;1577890;74;1932;-60
2022/11/06 04:47:07;;;;;;;;;;;23.10;62.40;;;;;;1584210;74;1598;-60
2022/11/06 04:49:09;;;;;;;;;;;23.10;62.30;;;;;;1582508;74;808;-57
2022/11/06 04:51:11;;;;;;;;;;;23.10;62.30;;;;;;1584875;74;781;-59
2022/11/06 04:53:13;;;;;;;;;;;23.20;62.30;;;;;;1582388;74;727;-60
2022/11/06 04:55:15;;;;;;;;;;;23.10;62.20;;;;;;1584042;74;725;-60
2022/11/06 04:57:17;;;;;;;;;;;23.10;62.20;;;;;;1585478;74;1145;-59
2022/11/06 04:59:19;;;;;;;;;;;23.10;62.20;;;;;;1582645;74;804;-59
2022/11/06 05:01:21;;;;;;;;;;;23.10;62.20;;;;;;1585596;74;1526;-59
2022/11/06 05:03:23;;;;;;;;;;;23.10;62.20;;;;;;1579631;74;730;-58
2022/11/06 05:05:26;;;;;;;;;;;23.10;62.20;;;;;;1580464;74;2235;-57
2022/11/06 05:07:28;;;;;;;;;;;23.10;62.10;;;;;;1579074;74;1138;-59
2022/11/06 05:09:29;;;;;;;;;;;23.10;62.10;;;;;;1586930;74;783;-58
2022/11/06 05:11:31;;;;;;;;;;;23.10;62.20;;;;;;1585803;74;1104;-58
2022/11/06 05:13:33;;;;;;;;;;;23.10;62.30;;;;;;1587922;74;672;-56
2022/11/06 05:15:35;;;;;;;;;;;23.10;62.30;;;;;;1588799;74;1516;-60
2022/11/06 05:17:37;;;;;;;;;;;23.10;62.30;;;;;;1590916;74;1195;-59
2022/11/06 05:19:39;;;;;;;;;;;23.00;62.30;;;;;;1591542;74;713;-60
2022/11/06 05:24:01;;;;;;;;;;;22.90;62.80;;;;;;1591401;74;1632;-60
2022/11/06 05:26:02;;;;;;;;;;;22.90;62.80;;;;;;1588860;74;1948;-59
2022/11/06 05:28:07;;;;;;;;;;;23.10;62.70;;;;;;1591618;74;1088;-57
2022/11/06 05:30:10;;;;;;;;;;;23.10;62.50;;;;;;1592141;74;1559;-60
2022/11/06 05:32:12;;;;;;;;;;;23.10;62.40;;;;;;1591734;74;738;-60
2022/11/06 05:34:13;;;;;;;;;;;23.10;62.30;;;;;;1589844;74;766;-60
2022/11/06 05:36:15;;;;;;;;;;;23.10;62.30;;;;;;1593649;74;1147;-59
2022/11/06 05:38:17;;;;;;;;;;;23.10;62.40;;;;;;1595171;74;733;-57
2022/11/06 05:40:19;;;;;;;;;;;23.00;62.40;;;;;;1590456;74;762;-59
2022/11/06 05:42:21;;;;;;;;;;;23.10;62.50;;;;;;1591603;74;790;-60
2022/11/06 05:44:23;;;;;;;;;;;23.10;62.30;;;;;;1590217;74;1539;-60
2022/11/06 05:46:25;;;;;;;;;;;23.00;62.30;;;;;;1591059;74;1913;-58
2022/11/06 05:48:27;;;;;;;;;;;23.00;62.50;;;;;;1592411;74;801;-59
2022/11/06 05:50:29;;;;;;;;;;;23.00;62.60;;;;;;1591766;74;714;-60
2022/11/06 05:52:31;;;;;;;;;;;23.00;62.60;;;;;;1585382;74;730;-59
2022/11/06 05:54:32;;;;;;;;;;;22.90;62.80;;;;;;1577477;74;705;-59
2022/11/06 05:56:35;;;;;;;;;;;22.90;62.90;;;;;;1588288;74;1146;-59
2022/11/06 05:58:36;;;;;;;;;;;23.00;62.90;;;;;;1589862;74;1215;-61
2022/11/06 06:00:38;;;;;;;;;;;23.00;62.90;;;;;;1592252;74;729;-57
2022/11/06 06:02:40;;;;;;;;;;;23.00;62.80;;;;;;1589128;74;738;-59
2022/11/06 06:04:42;;;;;;;;;;;23.00;62.60;;;;;;1595996;74;1910;-58
2022/11/06 06:06:44;;;;;;;;;;;23.00;62.60;;;;;;1589292;74;1143;-59
2022/11/06 06:08:46;;;;;;;;;;;23.00;62.60;;;;;;1591988;74;887;-59
2022/11/06 06:10:48;;;;;;;;;;;23.00;62.60;;;;;;1589401;74;779;-60
2022/11/06 06:12:50;;;;;;;;;;;23.00;62.60;;;;;;1588167;74;1505;-58
2022/11/06 06:14:53;;;;;;;;;;;23.00;62.60;;;;;;1583116;74;755;-55
2022/11/06 06:16:55;;;;;;;;;;;23.00;62.60;;;;;;1584774;74;1235;-59
2022/11/06 06:18:56;;;;;;;;;;;23.00;62.60;;;;;;1577952;74;751;-57
2022/11/06 06:20:59;;;;;;;;;;;22.90;62.70;;;;;;1583199;74;818;-58
2022/11/06 06:23:01;;;;;;;;;;;22.90;62.80;;;;;;1585714;74;776;-57
2022/11/06 06:25:02;;;;;;;;;;;22.90;62.90;;;;;;1581852;74;1931;-59
2022/11/06 06:27:04;;;;;;;;;;;23.00;62.80;;;;;;1582088;74;1534;-60
2022/11/06 06:29:06;;;;;;;;;;;23.00;62.60;;;;;;1585139;74;894;-59
2022/11/06 06:31:08;;;;;;;;;;;23.00;62.50;;;;;;1575042;74;854;-60
2022/11/06 06:33:10;;;;;;;;;;;23.00;62.40;;;;;;1578272;74;735;-60
2022/11/06 06:35:12;;;;;;;;;;;23.10;62.50;;;;;;1583732;74;727;-58
2022/11/06 06:37:14;;;;;;;;;;;23.00;62.50;;;;;;1586864;74;1150;-59
2022/11/06 06:39:16;;;;;;;;;;;23.00;62.60;;;;;;1579034;74;759;-58
2022/11/06 06:41:18;;;;;;;;;;;22.90;62.80;;;;;;1583298;74;1554;-59
2022/11/06 06:43:20;;;;;;;;;;;22.90;63.10;;;;;;1578902;74;775;-57
2022/11/06 06:45:22;;;;;;;;;;;22.90;63.00;;;;;;1581139;74;1943;-59
2022/11/06 06:47:24;;;;;;;;;;;23.00;62.70;;;;;;1580921;74;1143;-60
2022/11/06 06:49:26;;;;;;;;;;;23.00;62.50;;;;;;1581791;74;774;-60
2022/11/06 06:51:28;;;;;;;;;;;23.10;62.50;;;;;;1580243;74;680;-59
2022/11/06 06:53:29;;;;;;;;;;;23.10;62.50;;;;;;1578503;74;731;-60
2022/11/06 06:55:31;;;;;;;;;;;23.10;62.50;;;;;;1580808;74;1572;-60
2022/11/06 06:57:33;;;;;;;;;;;23.00;62.50;;;;;;1588906;74;1088;-58
2022/11/06 06:59:35;;;;;;;;;;;23.00;62.70;;;;;;1584303;74;714;-56
2022/11/06 07:01:37;;;;;;;;;;;23.00;62.70;;;;;;1582444;74;742;-57
2022/11/06 07:03:39;;;;;;;;;;;22.90;62.80;;;;;;1589440;74;770;-59
2022/11/06 07:05:41;;;;;;;;;;;22.80;63.00;;;;;;1584836;74;1926;-60
2022/11/06 07:07:43;;;;;;;;;;;22.70;63.40;;;;;;1575790;74;1167;-58
2022/11/06 07:09:45;;;;;;;;;;;22.80;63.50;;;;;;1579802;74;1896;-60
2022/11/06 07:11:47;;;;;;;;;;;22.80;63.60;;;;;;1576145;74;904;-59
2022/11/06 07:13:49;;;;;;;;;;;22.90;63.20;;;;;;1594115;74;1149;-57
2022/11/06 07:15:51;;;;;;;;;;;22.80;62.80;;;;;;1590067;74;747;-61
2022/11/06 07:17:53;;;;;;;;;;;22.80;62.70;;;;;;1598115;74;1178;-59
2022/11/06 07:19:55;;;;;;;;;;;22.90;62.80;;;;;;1600062;74;724;-60
2022/11/06 07:21:57;;;;;;;;;;;22.90;62.70;;;;;;1596178;74;1570;-57
2022/11/06 07:23:59;;;;;;;;;;;22.90;62.70;;;;;;1598444;74;799;-61
2022/11/06 07:26:00;;;;;;;;;;;22.80;62.70;;;;;;1598612;74;1936;-60
2022/11/06 07:28:03;;;;;;;;;;;22.70;63.00;;;;;;1595863;74;1057;-58
2022/11/06 07:30:05;;;;;;;;;;;22.60;63.40;;;;;;1593865;74;809;-60
2022/11/06 07:32:10;;;;;;;;;;;22.70;63.70;;;;;;1592637;74;804;-60
2022/11/06 07:34:12;;;;;;;;;;;22.70;63.80;;;;;;1590936;74;743;-57
2022/11/06 07:36:14;;;;;;;;;;;22.80;63.20;;;;;;1599770;74;1500;-61
2022/11/06 07:38:16;;;;;;;;;;;22.70;63.50;;;;;;1594083;74;750;-59
2022/11/06 07:40:17;;;;;;;;;;;22.70;63.80;;;;;;1597662;74;770;-58
2022/11/06 07:42:19;;;;;;;;;;;22.60;64.10;;;;;;1592824;74;759;-58
2022/11/06 07:44:21;;;;;;;;;;;22.50;64.50;;;;;;1592841;74;700;-59
2022/11/06 07:46:23;;;;;;;;;;;22.50;64.70;;;;;;1597249;74;1933;-57
2022/11/06 07:48:25;;;;;;;;;;;22.50;64.80;;;;;;1598632;74;750;-57
2022/11/06 07:50:27;;;;;;;;;;;22.50;64.90;;;;;;1601487;74;1535;-60
2022/11/06 07:52:29;;;;;;;;;;;22.40;65.10;;;;;;1600389;74;735;-60
2022/11/06 07:54:30;;;;;;;;;;;22.40;65.10;;;;;;1597354;74;710;-60
2022/11/06 07:56:32;;;;;;;;;;;22.50;65.40;;;;;;1598128;74;1135;-59
2022/11/06 07:58:34;;;;;;;;;;;22.40;65.10;;;;;;1595240;74;729;-59
2022/11/06 08:00:36;;;;;;;;;;;22.50;65.10;;;;;;1596792;74;678;-58
2022/11/06 08:02:38;;;;;;;;;;;22.50;65.30;;;;;;1591302;74;730;-57
2022/11/06 08:04:40;;;;;;;;;;;22.50;65.20;;;;;;1592872;74;1493;-60
2022/11/06 08:06:42;;;;;;;;;;;22.50;65.00;;;;;;1596160;74;1936;-60
2022/11/06 08:08:44;;;;;;;;;;;22.50;64.90;;;;;;1583398;74;709;-57
2022/11/06 08:10:46;;;;;;;;;;;22.50;64.80;;;;;;1597256;74;757;-56
2022/11/06 08:12:48;;;;;;;;;;;22.60;64.50;;;;;;1593139;74;1110;-58
2022/11/06 08:14:50;;;;;;;;;;;22.60;64.90;;;;;;1588538;74;736;-57
2022/11/06 08:16:52;;;;;;;;;;;22.70;64.90;;;;;;1589642;74;1198;-57
2022/11/06 08:18:54;;;;;;;;;;;22.80;64.20;;;;;;1592367;74;1562;-55
2022/11/06 08:20:56;;;;;;;;;;;23.00;63.60;;;;;;1592614;74;730;-55
2022/11/06 08:22:59;;;;;;;;;;;23.10;63.10;;;;;;1582132;74;733;-58
2022/11/06 08:25:00;;;;;;;;;;;23.10;62.70;;;;;;1584032;74;779;-57
2022/11/06 08:27:02;;;;;;;;;;;23.20;62.60;;;;;;1604131;71;221032;-72
2022/11/06 08:29:04;;;;;;;;;;;23.20;62.50;;;;;;1579911;71;3087;-72
2022/11/06 08:31:06;;;;;;;;;;;23.30;62.40;;;;;;1518114;77;661;-71
2022/11/06 08:33:10;;;;;;;;;;;23.30;62.30;;;;;;1520253;77;1526;-72
2022/11/06 08:35:12;;;;;;;;;;;23.20;62.40;;;;;;1515772;76;738;-73
2022/11/06 08:37:14;;;;;;;;;;;23.10;62.70;;;;;;1517696;77;723;-71
2022/11/06 08:39:16;;;;;;;;;;;23.10;63.00;;;;;;1509836;77;1209;-70
2022/11/06 08:41:18;;;;;;;;;;;23.10;63.20;;;;;;1496881;71;2103;-62
2022/11/06 08:43:22;;;;;;;;;;;23.10;63.30;;;;;;1526081;76;724;-64
2022/11/06 08:45:23;;;;;;;;;;;23.10;63.10;;;;;;1509328;76;1868;-64
2022/11/06 08:47:25;;;;;;;;;;;23.10;63.10;;;;;;1531174;76;1944;-64
2022/11/06 08:49:27;;;;;;;;;;;23.20;63.00;;;;;;1526272;76;683;-64
2022/11/06 08:51:29;;;;;;;;;;;23.20;62.90;;;;;;1517326;76;1204;-64
2022/11/06 08:53:30;;;;;;;;;;;23.20;62.80;;;;;;1523805;76;731;-65
2022/11/06 08:55:33;;;;;;;;;;;23.20;62.70;;;;;;1499824;76;654;-65
2022/11/06 08:57:35;;;;;;;;;;;23.30;62.60;;;;;;1514096;76;735;-66
2022/11/06 08:59:37;;;;;;;;;;;23.30;62.60;;;;;;1516203;76;678;-66
2022/11/06 09:01:38;;;;;;;;;;;23.30;62.40;;;;;;1523239;76;1428;-64
2022/11/06 09:03:40;;;;;;;;;;;23.30;62.30;;;;;;1525521;76;802;-63
2022/11/06 09:05:42;;;;;;;;;;;23.30;62.30;;;;;;1515606;76;1935;-63
2022/11/06 09:07:44;;;;;;;;;;;23.30;62.20;;;;;;1516170;76;818;-63
2022/11/06 09:09:46;;;;;;;;;;;23.30;62.30;;;;;;1509033;76;668;-62
2022/11/06 09:11:48;;;;;;;;;;;23.30;62.30;;;;;;1503294;76;1334;-63
2022/11/06 09:13:50;;;;;;;;;;;23.40;62.10;;;;;;1502273;76;788;-63
2022/11/06 09:15:52;;;;;;;;;;;23.40;62.00;;;;;;1518301;76;1435;-67
2022/11/06 09:17:54;;;;;;;;;;;23.50;62.00;;;;;;1520719;76;711;-63
2022/11/06 09:19:56;;;;;;;;;;;23.40;61.90;;;;;;1511937;77;728;-64
2022/11/06 09:21:57;;;;;;;;;;;23.40;61.90;;;;;;1513483;76;1111;-64
2022/11/06 09:23:59;;;;;;;;;;;23.40;61.90;;;;;;1515795;76;733;-64
2022/11/06 09:26:01;;;;;;;;;;;23.40;61.90;;;;;;1513390;76;1927;-65
2022/11/06 09:28:03;;;;;;;;;;;23.50;62.00;;;;;;1523018;76;795;-65
2022/11/06 09:30:05;;;;;;;;;;;23.50;61.90;;;;;;1526227;76;1474;-66
2022/11/06 09:32:07;;;;;;;;;;;23.50;61.70;;;;;;1524674;76;1134;-64
2022/11/06 09:34:09;;;;;;;;;;;23.60;61.50;;;;;;1520814;76;726;-65
2022/11/06 09:36:11;;;;;;;;;;;23.60;61.30;;;;;;1523536;76;695;-63
2022/11/06 09:38:14;;;;;;;;;;;23.60;61.30;;;;;;1514187;76;705;-64
2022/11/06 09:40:20;;;;;;;;;;;23.60;61.30;;;;;;1524137;76;738;-64
2022/11/06 09:42:27;;;;;;;;;;;23.60;61.30;;;;;;1524423;76;1264;-64
2022/11/06 09:44:30;;;;;;;;;;;23.60;61.10;;;;;;1518881;76;997;-66
2022/11/06 09:46:45;;;;;;;;;;;23.60;61.00;;;;;;1524361;76;1918;-66
2022/11/06 09:48:47;;;;;;;;;;;23.60;61.00;;;;;;1527676;76;705;-65
2022/11/06 09:50:51;;;;;;;;;;;23.50;61.00;;;;;;1520858;76;731;-65
2022/11/06 09:52:54;;;;;;;;;;;23.50;60.90;;;;;;1521334;76;1118;-64
2022/11/06 09:54:57;;;;;;;;;;;23.50;60.80;;;;;;1521200;76;745;-63
2022/11/06 09:57:01;;;;;;;;;;;23.40;60.80;;;;;;1521114;76;1374;-65
2022/11/06 09:59:06;;;;;;;;;;;23.30;60.90;;;;;;1519756;76;727;-64
2022/11/06 10:01:12;;;;;;;;;;;23.30;60.90;;;;;;1528721;77;807;-64
2022/11/06 10:03:31;;;;;;;;;;;23.30;61.00;;;;;;1519652;76;761;-64
2022/11/06 10:05:34;;;;;;;;;;;23.20;60.80;;;;;;1525509;76;747;-64
2022/11/06 10:07:37;;;;;;;;;;;23.10;60.50;;;;;;1521109;76;1905;-65
2022/11/06 10:09:39;;;;;;;;;;;23.10;60.20;;;;;;1518537;77;722;-65
2022/11/06 10:11:46;;;;;;;;;;;23.10;60.30;;;;;;1520614;76;1487;-70
2022/11/06 10:13:58;;;;;;;;;;;23.10;60.40;;;;;;1515476;76;721;-69
2022/11/06 10:16:04;;;;;;;;;;;23.10;59.40;;;;;;1530376;76;706;-65
2022/11/06 10:18:11;;;;;;;;;;;23.10;58.90;;;;;;1508402;76;1029;-66
2022/11/06 10:20:14;;;;;;;;;;;23.10;58.90;;;;;;1505305;76;1012;-66
2022/11/06 10:22:17;;;;;;;;;;;23.10;58.40;;;;;;1520212;76;1153;-63
2022/11/06 10:24:22;;;;;;;;;;;23.10;58.40;;;;;;1520234;76;764;-64
2022/11/06 10:26:26;;;;;;;;;;;23.20;58.10;;;;;;1527006;76;1917;-64
2022/11/06 10:28:41;;;;;;;;;;;23.30;57.90;;;;;;1517803;76;1853;-64
2022/11/06 10:30:45;;;;;;;;;;;23.30;57.70;;;;;;1521600;76;2003;-64
2022/11/06 10:32:48;;;;;;;;;;;23.30;57.30;;;;;;1524064;76;1150;-64
2022/11/06 10:34:52;;;;;;;;;;;23.30;57.20;;;;;;1508510;77;783;-65
2022/11/06 10:36:58;;;;;;;;;;;23.30;57.20;;;;;;1516649;78;1737;-62
2022/11/06 10:39:00;;;;;;;;;;;23.30;57.20;;;;;;1520246;76;1478;-66
2022/11/06 10:41:02;;;;;;;;;;;23.30;56.90;;;;;;1518591;76;734;-66
2022/11/06 10:43:24;;;;;;;;;;;23.30;57.00;;;;;;1516986;76;1108;-64
2022/11/06 10:45:26;;;;;;;;;;;23.30;57.10;;;;;;1526047;77;724;-64
2022/11/06 10:47:29;;;;;;;;;;;23.30;57.30;;;;;;1524207;76;1947;-64
2022/11/06 10:49:33;;;;;;;;;;;23.20;57.40;;;;;;1519964;76;1726;-64
2022/11/06 10:51:36;;;;;;;;;;;23.20;57.80;;;;;;1522701;76;1442;-63
2022/11/06 10:53:46;;;;;;;;;;;23.10;58.00;;;;;;1515378;76;1927;-63
2022/11/06 10:55:50;;;;;;;;;;;23.10;58.20;;;;;;1512034;78;2162;-64
2022/11/06 10:57:53;;;;;;;;;;;23.10;58.20;;;;;;1515687;78;960;-64
2022/11/06 10:59:54;;;;;;;;;;;23.10;58.20;;;;;;1521038;76;746;-64
2022/11/06 11:01:56;;;;;;;;;;;23.10;58.20;;;;;;1516217;77;1164;-65
2022/11/06 11:03:58;;;;;;;;;;;23.20;58.20;;;;;;1524669;76;676;-64
2022/11/06 11:06:01;;;;;;;;;;;23.20;58.20;;;;;;1525417;76;775;-64
2022/11/06 11:08:03;;;;;;;;;;;23.20;58.10;;;;;;1514308;76;1923;-63
2022/11/06 11:10:22;;;;;;;;;;;23.20;58.10;;;;;;1509343;76;706;-63
2022/11/06 11:12:25;;;;;;;;;;;23.20;58.10;;;;;;1516588;76;1120;-64
2022/11/06 11:14:30;;;;;;;;;;;23.30;58.00;;;;;;1520083;77;726;-64
2022/11/06 11:16:33;;;;;;;;;;;23.20;58.00;;;;;;1512827;76;737;-64
2022/11/06 11:18:35;;;;;;;;;;;23.20;58.10;;;;;;1515529;76;670;-65
2022/11/06 11:20:39;;;;;;;;;;;23.10;58.30;;;;;;1518775;76;700;-64
2022/11/06 11:22:41;;;;;;;;;;;23.00;58.20;;;;;;1508782;76;1507;-66
2022/11/06 11:24:50;;;;;;;;;;;22.90;58.20;;;;;;1516335;76;634;-64
2022/11/06 11:27:02;;;;;;;;;;;22.90;58.10;;;;;;1480128;77;1939;-65
2022/11/06 11:29:17;;;;;;;;;;;22.90;57.90;;;;;;1507774;78;1675;-64
2022/11/06 11:31:18;;;;;;;;;;;22.80;57.50;;;;;;1509903;76;1148;-65
2022/11/06 11:33:21;;;;;;;;;;;22.70;57.30;;;;;;1520869;76;812;-65
2022/11/06 11:35:26;;;;;;;;;;;22.80;57.30;;;;;;1515902;76;1447;-66
2022/11/06 11:37:29;;;;;;;;;;;22.70;57.20;;;;;;1509869;77;822;-65
2022/11/06 11:39:32;;;;;;;;;;;22.60;57.10;;;;;;1523236;76;752;-65
2022/11/06 11:41:34;;;;;;;;;;;22.60;56.90;;;;;;1531146;76;1157;-64
2022/11/06 11:43:36;;;;;;;;;;;22.70;57.00;;;;;;1524437;76;782;-65
2022/11/06 11:45:38;;;;;;;;;;;22.70;56.70;;;;;;1521610;76;702;-65
2022/11/06 11:47:40;;;;;;;;;;;22.70;56.30;;;;;;1524284;78;1937;-65
2022/11/06 11:49:42;;;;;;;;;;;22.80;56.40;;;;;;1516018;76;1530;-66
2022/11/06 11:51:44;;;;;;;;;;;22.70;55.20;;;;;;1508132;76;1108;-67
2022/11/06 11:53:46;;;;;;;;;;;22.80;55.60;;;;;;1489694;78;762;-66
2022/11/06 11:55:48;;;;;;;;;;;22.60;55.30;;;;;;1521844;76;803;-65
2022/11/06 11:57:50;;;;;;;;;;;22.80;56.40;;;;;;1523571;77;853;-64
2022/11/06 11:59:58;;;;;;;;;;;22.90;56.20;;;;;;1515361;76;826;-65
2022/11/06 12:02:17;;;;;;;;;;;23.00;55.90;;;;;;1519157;76;2168;-66
2022/11/06 12:04:23;;;;;;;;;;;23.00;55.80;;;;;;1527505;76;1607;-62
2022/11/06 12:06:25;;;;;;;;;;;23.10;56.00;;;;;;1509272;76;2060;-63
2022/11/06 12:08:27;;;;;;;;;;;23.10;56.00;;;;;;1512921;76;1948;-64
2022/11/06 12:10:35;;;;;;;;;;;23.10;56.20;;;;;;1526725;76;682;-64
2022/11/06 12:12:37;;;;;;;;;;;23.10;56.20;;;;;;1531119;76;1174;-64
2022/11/06 12:14:39;;;;;;;;;;;23.00;56.20;;;;;;1523316;76;713;-65
2022/11/06 12:16:41;;;;;;;;;;;23.10;56.40;;;;;;1525751;76;727;-63
2022/11/06 12:18:44;;;;;;;;;;;23.10;56.50;;;;;;1513398;76;1504;-64
2022/11/06 12:21:04;;;;;;;;;;;23.10;56.50;;;;;;1514193;76;1047;-64
2022/11/06 12:23:08;;;;;;;;;;;23.20;56.40;;;;;;1519560;76;1149;-64
2022/11/06 12:25:10;;;;;;;;;;;23.10;56.60;;;;;;1525329;76;709;-63
2022/11/06 12:27:22;;;;;;;;;;;23.10;56.60;;;;;;1531791;76;1925;-63
2022/11/06 12:29:43;;;;;;;;;;;23.10;56.80;;;;;;1522240;76;1517;-63